createdAt,value
2018-09-17T00:01:15.782Z,2.05
2018-09-17T00:03:44.773Z,1.55
2018-09-17T00:06:13.966Z,1.90
2018-09-17T00:08:42.963Z,2.02
2018-09-17T00:11:12.283Z,1.67
2018-09-17T00:13:41.679Z,2.05
2018-09-17T00:16:10.659Z,1.90
2018-09-17T00:18:39.756Z,2.05
2018-09-17T00:21:08.872Z,2.02
2018-09-17T00:23:38.562Z,2.05
2018-09-17T00:26:07.739Z,1.92
2018-09-17T00:28:36.779Z,2.15
2018-09-17T00:31:05.651Z,2.25
2018-09-17T00:33:34.406Z,2.60
2018-09-17T00:36:03.326Z,2.47
2018-09-17T00:38:32.801Z,2.72
2018-09-17T00:41:01.629Z,2.50
2018-09-17T00:43:30.974Z,2.52
2018-09-17T00:45:59.786Z,2.60
2018-09-17T00:48:29.287Z,2.70
2018-09-17T00:50:57.999Z,3.05
2018-09-17T00:53:27.011Z,2.67
2018-09-17T00:55:56.222Z,3.33
2018-09-17T00:58:25.291Z,3.60
2018-09-17T01:00:54.399Z,4.12
2018-09-17T01:03:23.711Z,3.85
2018-09-17T01:05:52.483Z,3.98
2018-09-17T01:08:21.383Z,3.60
2018-09-17T01:10:50.702Z,4.37
2018-09-17T01:13:19.535Z,4.25
2018-09-17T01:15:48.575Z,3.80
2018-09-17T01:18:17.826Z,4.50
2018-09-17T01:20:46.857Z,4.97
2018-09-17T01:23:15.939Z,4.58
2018-09-17T01:25:45.735Z,4.45
2018-09-17T01:28:14.554Z,4.60
2018-09-17T01:30:43.468Z,4.55
2018-09-17T01:33:12.731Z,4.35
2018-09-17T01:35:41.551Z,4.42
2018-09-17T01:38:10.514Z,4.67
2018-09-17T01:40:40.170Z,4.92
2018-09-17T01:43:09.253Z,4.72
2018-09-17T01:45:38.146Z,4.60
2018-09-17T01:48:07.519Z,4.33
2018-09-17T01:50:36.443Z,3.65
2018-09-17T01:53:05.203Z,3.67
2018-09-17T01:55:34.251Z,3.17
2018-09-17T01:58:03.342Z,2.98
2018-09-17T02:00:32.934Z,2.25
2018-09-17T02:03:02.030Z,2.70
2018-09-17T02:05:31.708Z,2.65
2018-09-17T02:08:00.862Z,2.40
2018-09-17T02:10:30.395Z,2.50
2018-09-17T02:12:59.302Z,2.40
2018-09-17T02:15:28.784Z,3.10
2018-09-17T02:17:57.794Z,3.52
2018-09-17T02:20:26.740Z,4.75
2018-09-17T02:22:55.975Z,4.87
2018-09-17T02:25:25.647Z,4.47
2018-09-17T02:27:54.663Z,4.78
2018-09-17T02:30:24.665Z,4.37
2018-09-17T02:32:53.739Z,3.52
2018-09-17T02:35:22.543Z,3.33
2018-09-17T02:37:52.540Z,4.62
2018-09-17T02:40:21.353Z,4.03
2018-09-17T02:42:51.252Z,4.08
2018-09-17T02:45:21.350Z,4.12
2018-09-17T02:47:50.379Z,3.70
2018-09-17T02:50:19.995Z,4.10
2018-09-17T02:52:49.004Z,4.60
2018-09-17T02:55:17.999Z,4.40
2018-09-17T02:57:47.231Z,4.80
2018-09-17T03:00:20.151Z,4.15
2018-09-17T03:02:50.291Z,4.22
2018-09-17T03:05:19.463Z,5.25
2018-09-17T03:07:49.323Z,5.37
2018-09-17T03:10:18.979Z,5.95
2018-09-17T03:12:48.244Z,5.40
2018-09-17T03:15:28.500Z,6.33
2018-09-17T03:17:58.798Z,5.40
2018-09-17T03:20:27.875Z,5.22
2018-09-17T03:22:57.002Z,5.20
2018-09-17T03:25:25.879Z,5.78
2018-09-17T03:27:55.682Z,4.62
2018-09-17T03:30:24.909Z,4.97
2018-09-17T03:32:53.990Z,5.20
2018-09-17T03:35:23.291Z,5.22
2018-09-17T03:37:52.818Z,5.53
2018-09-17T03:40:21.783Z,5.35
2018-09-17T03:42:50.475Z,5.12
2018-09-17T03:45:19.743Z,5.72
2018-09-17T03:47:48.885Z,6.97
2018-09-17T03:50:17.855Z,5.97
2018-09-17T03:52:46.919Z,5.97
2018-09-17T03:55:15.750Z,6.05
2018-09-17T03:57:45.670Z,5.58
2018-09-17T04:00:15.095Z,5.22
2018-09-17T04:02:44.407Z,5.40
2018-09-17T04:05:13.691Z,5.25
2018-09-17T04:07:42.703Z,5.70
2018-09-17T04:10:11.769Z,5.47
2018-09-17T04:12:40.670Z,6.22
2018-09-17T04:15:10.222Z,5.90
2018-09-17T04:17:39.079Z,5.03
2018-09-17T04:20:08.263Z,4.50
2018-09-17T04:22:37.819Z,3.95
2018-09-17T04:25:06.851Z,4.95
2018-09-17T04:27:35.871Z,5.72
2018-09-17T04:30:05.453Z,5.28
2018-09-17T04:32:35.173Z,5.30
2018-09-17T04:35:06.119Z,4.75
2018-09-17T04:37:36.762Z,6.47
2018-09-17T04:40:06.555Z,5.78
2018-09-17T04:42:36.685Z,5.85
2018-09-17T04:45:06.335Z,5.10
2018-09-17T04:47:36.014Z,5.22
2018-09-17T04:50:05.224Z,5.62
2018-09-17T04:52:34.483Z,4.45
2018-09-17T04:55:03.441Z,4.95
2018-09-17T04:57:32.927Z,6.00
2018-09-17T05:00:02.609Z,4.92
2018-09-17T05:02:31.502Z,5.17
2018-09-17T05:05:00.634Z,6.72
2018-09-17T05:07:29.905Z,4.85
2018-09-17T05:09:59.207Z,5.30
2018-09-17T05:12:28.631Z,5.35
2018-09-17T05:14:57.843Z,4.08
2018-09-17T05:17:27.092Z,3.45
2018-09-17T05:19:56.009Z,3.42
2018-09-17T05:22:25.123Z,3.98
2018-09-17T05:24:54.584Z,4.83
2018-09-17T05:27:23.591Z,4.75
2018-09-17T05:29:52.459Z,4.35
2018-09-17T05:32:21.355Z,4.00
2018-09-17T05:34:50.688Z,5.53
2018-09-17T05:37:19.805Z,4.72
2018-09-17T05:39:48.779Z,5.97
2018-09-17T05:42:17.895Z,3.60
2018-09-17T05:44:46.866Z,4.90
2018-09-17T05:47:15.748Z,4.28
2018-09-17T05:49:44.593Z,3.92
2018-09-17T05:52:13.531Z,4.17
2018-09-17T05:54:42.615Z,4.33
2018-09-17T05:57:11.658Z,4.55
2018-09-17T05:59:40.735Z,4.20
2018-09-17T06:02:09.632Z,3.83
2018-09-17T06:04:39.620Z,4.33
2018-09-17T06:07:08.749Z,5.12
2018-09-17T06:09:37.796Z,4.53
2018-09-17T06:12:07.016Z,5.05
2018-09-17T06:14:35.835Z,5.33
2018-09-17T06:17:05.007Z,5.62
2018-09-17T06:19:34.308Z,5.22
2018-09-17T06:22:03.107Z,5.55
2018-09-17T06:24:32.091Z,6.53
2018-09-17T06:27:01.180Z,6.37
2018-09-17T06:29:29.872Z,5.83
2018-09-17T06:31:58.874Z,6.17
2018-09-17T06:34:28.009Z,5.70
2018-09-17T06:39:25.647Z,6.12
2018-09-17T06:41:54.746Z,5.85
2018-09-17T06:44:23.740Z,6.12
2018-09-17T06:46:53.244Z,6.22
2018-09-17T06:49:22.340Z,7.12
2018-09-17T06:51:51.347Z,6.22
2018-09-17T06:54:20.228Z,7.03
2018-09-17T06:56:49.351Z,7.00
2018-09-17T06:59:18.502Z,7.05
2018-09-17T07:01:47.274Z,7.20
2018-09-17T07:04:15.897Z,7.47
2018-09-17T07:06:44.686Z,6.33
2018-09-17T07:09:13.665Z,6.62
2018-09-17T07:11:42.926Z,6.22
2018-09-17T07:14:11.625Z,6.40
2018-09-17T07:16:40.544Z,6.15
2018-09-17T07:19:09.467Z,7.03
2018-09-17T07:21:38.274Z,7.15
2018-09-17T07:24:06.931Z,6.87
2018-09-17T07:26:35.731Z,7.50
2018-09-17T07:29:04.899Z,7.50
2018-09-17T07:31:33.891Z,8.88
2018-09-17T07:34:02.911Z,7.75
2018-09-17T07:36:32.210Z,8.80
2018-09-17T07:39:00.982Z,9.55
2018-09-17T07:41:30.327Z,8.73
2018-09-17T07:43:59.405Z,8.90
2018-09-17T07:46:28.283Z,10.03
2018-09-17T07:48:57.186Z,10.43
2018-09-17T07:51:26.182Z,9.85
2018-09-17T07:53:55.268Z,9.80
2018-09-17T07:56:24.597Z,10.80
2018-09-17T07:58:53.585Z,9.83
2018-09-17T08:01:22.738Z,9.80
2018-09-17T08:03:51.974Z,10.20
2018-09-17T08:06:21.163Z,10.63
2018-09-17T08:08:50.274Z,10.43
2018-09-17T08:11:20.899Z,9.98
2018-09-17T08:13:50.099Z,9.78
2018-09-17T08:16:18.985Z,10.40
2018-09-17T08:18:48.247Z,11.05
2018-09-17T08:21:17.294Z,11.10
2018-09-17T08:23:46.295Z,10.68
2018-09-17T08:26:15.656Z,11.45
2018-09-17T08:28:45.302Z,11.53
2018-09-17T08:31:14.463Z,12.35
2018-09-17T08:33:43.876Z,13.30
2018-09-17T08:36:13.027Z,13.45
2018-09-17T08:38:42.197Z,13.85
2018-09-17T08:41:11.331Z,14.40
2018-09-17T08:43:40.247Z,14.43
2018-09-17T08:46:09.393Z,15.20
2018-09-17T08:48:38.277Z,15.58
2018-09-17T08:51:07.468Z,15.50
2018-09-17T08:53:36.464Z,15.93
2018-09-17T08:56:27.082Z,15.98
2018-09-17T08:58:59.571Z,16.55
2018-09-17T09:01:29.764Z,16.57
2018-09-17T09:04:03.749Z,16.25
2018-09-17T09:06:39.098Z,17.15
2018-09-17T09:09:10.318Z,16.32
2018-09-17T09:11:44.718Z,16.00
2018-09-17T09:14:45.292Z,16.85
2018-09-17T09:17:15.186Z,15.48
2018-09-17T09:19:44.041Z,15.60
2018-09-17T09:22:13.139Z,15.08
2018-09-17T09:24:42.493Z,14.70
2018-09-17T09:27:11.536Z,14.90
2018-09-17T09:29:40.587Z,14.23
2018-09-17T09:32:09.946Z,15.05
2018-09-17T09:34:38.918Z,14.10
2018-09-17T09:37:07.907Z,14.05
2018-09-17T09:39:37.348Z,14.00
2018-09-17T09:42:06.661Z,14.53
2018-09-17T09:44:35.510Z,14.43
2018-09-17T09:47:05.141Z,14.63
2018-09-17T09:49:34.203Z,14.15
2018-09-17T09:52:03.426Z,15.25
2018-09-17T09:54:33.215Z,14.33
2018-09-17T09:57:02.107Z,13.60
2018-09-17T09:59:31.067Z,14.20
2018-09-17T10:02:05.675Z,15.15
2018-09-17T10:04:35.363Z,13.13
2018-09-17T10:07:04.521Z,13.78
2018-09-17T10:09:39.475Z,14.40
2018-09-17T10:12:14.175Z,14.60
2018-09-17T10:14:48.475Z,14.35
2018-09-17T10:17:22.611Z,12.73
2018-09-17T10:19:52.758Z,11.95
2018-09-17T10:22:21.759Z,13.03
2018-09-17T10:24:50.747Z,11.85
2018-09-17T10:27:19.970Z,12.07
2018-09-17T10:29:49.288Z,11.70
2018-09-17T10:32:18.768Z,12.55
2018-09-17T10:34:47.667Z,11.63
2018-09-17T10:37:16.454Z,11.60
2018-09-17T10:39:46.316Z,10.98
2018-09-17T10:42:15.348Z,10.78
2018-09-17T10:44:44.149Z,9.90
2018-09-17T10:47:13.041Z,9.15
2018-09-17T10:49:42.753Z,9.98
2018-09-17T10:52:11.949Z,9.03
2018-09-17T10:54:41.290Z,9.20
2018-09-17T10:57:10.409Z,8.80
2018-09-17T10:59:39.335Z,9.58
2018-09-17T11:02:08.713Z,8.85
2018-09-17T11:04:37.643Z,8.40
2018-09-17T11:07:07.139Z,8.45
2018-09-17T11:09:36.034Z,8.15
2018-09-17T11:12:05.139Z,9.30
2018-09-17T11:14:34.027Z,8.40
2018-09-17T11:17:03.066Z,8.20
2018-09-17T11:19:31.920Z,8.83
2018-09-17T11:22:00.794Z,8.10
2018-09-17T11:24:29.694Z,8.78
2018-09-17T11:26:58.694Z,8.33
2018-09-17T11:29:27.581Z,8.45
2018-09-17T11:31:56.574Z,8.90
2018-09-17T11:34:26.075Z,9.08
2018-09-17T11:36:55.600Z,8.20
2018-09-17T11:39:25.036Z,8.65
2018-09-17T11:41:53.879Z,8.33
2018-09-17T11:44:22.725Z,8.80
2018-09-17T11:46:51.898Z,9.53
2018-09-17T11:49:20.988Z,9.88
2018-09-17T11:51:50.091Z,9.90
2018-09-17T11:54:19.392Z,9.13
2018-09-17T11:56:48.781Z,9.63
2018-09-17T11:59:18.439Z,9.58
2018-09-17T12:01:51.474Z,9.53
2018-09-17T12:04:25.754Z,9.93
2018-09-17T12:07:00.861Z,9.58
2018-09-17T12:09:29.902Z,10.32
2018-09-17T12:11:59.444Z,9.85
2018-09-17T12:14:29.191Z,9.43
2018-09-17T12:16:58.247Z,9.73
2018-09-17T12:19:27.346Z,9.80
2018-09-17T12:21:56.710Z,9.50
2018-09-17T12:24:25.923Z,10.23
2018-09-17T12:26:55.464Z,10.23
2018-09-17T12:29:24.671Z,9.85
2018-09-17T12:31:53.668Z,10.70
2018-09-17T12:34:22.741Z,10.90
2018-09-17T12:36:52.167Z,9.88
2018-09-17T12:39:21.948Z,10.68
2018-09-17T12:41:51.390Z,10.28
2018-09-17T12:44:21.436Z,9.68
2018-09-17T12:46:50.475Z,10.58
2018-09-17T12:49:19.815Z,9.83
2018-09-17T12:51:48.626Z,10.05
2018-09-17T12:54:18.310Z,9.45
2018-09-17T12:56:47.612Z,10.95
2018-09-17T12:59:18.142Z,10.03
2018-09-17T13:01:47.226Z,9.38
2018-09-17T13:04:16.404Z,10.50
2018-09-17T13:06:45.955Z,10.75
2018-09-17T13:09:15.243Z,9.85
2018-09-17T13:11:45.112Z,10.15
2018-09-17T13:14:14.200Z,9.40
2018-09-17T13:16:44.269Z,9.58
2018-09-17T13:19:14.051Z,9.70
2018-09-17T13:21:43.573Z,10.20
2018-09-17T13:24:13.158Z,9.50
2018-09-17T13:26:42.370Z,9.60
2018-09-17T13:29:11.661Z,9.83
2018-09-17T13:31:40.792Z,8.73
2018-09-17T13:34:09.679Z,8.93
2018-09-17T13:36:39.146Z,8.88
2018-09-17T13:39:07.994Z,8.90
2018-09-17T13:41:37.697Z,8.90
2018-09-17T13:44:07.280Z,8.08
2018-09-17T13:46:39.166Z,9.10
2018-09-17T13:49:09.316Z,8.83
2018-09-17T13:51:38.397Z,9.45
2018-09-17T13:54:07.378Z,8.45
2018-09-17T13:56:36.829Z,9.28
2018-09-17T13:59:05.942Z,9.00
2018-09-17T14:01:36.709Z,8.80
2018-09-17T14:04:06.218Z,8.65
2018-09-17T14:06:35.436Z,9.03
2018-09-17T14:09:05.931Z,9.15
2018-09-17T14:11:35.239Z,9.60
2018-09-17T14:14:04.388Z,9.95
2018-09-17T14:16:33.716Z,9.03
2018-09-17T14:19:03.089Z,7.33
2018-09-17T14:21:32.348Z,8.23
2018-09-17T14:24:01.470Z,8.25
2018-09-17T14:26:32.721Z,8.48
2018-09-17T14:29:02.838Z,8.60
2018-09-17T14:31:37.580Z,7.60
2018-09-17T14:34:07.987Z,6.70
2018-09-17T14:36:37.814Z,7.65
2018-09-17T14:39:08.827Z,7.42
2018-09-17T14:41:37.855Z,7.30
2018-09-17T14:44:08.091Z,8.40
2018-09-17T14:46:38.007Z,7.28
2018-09-17T14:49:07.028Z,6.78
2018-09-17T14:51:36.785Z,6.67
2018-09-17T14:54:05.943Z,6.67
2018-09-17T14:56:35.840Z,6.60
2018-09-17T14:59:05.380Z,6.58
2018-09-17T15:01:34.660Z,6.37
2018-09-17T15:04:03.709Z,6.53
2018-09-17T15:06:32.697Z,7.45
2018-09-17T15:09:01.925Z,6.37
2018-09-17T15:11:31.195Z,7.15
2018-09-17T15:14:00.538Z,7.05
2018-09-17T15:16:30.519Z,6.97
2018-09-17T15:18:59.507Z,6.78
2018-09-17T15:21:29.115Z,6.90
2018-09-17T15:23:59.069Z,6.60
2018-09-17T15:26:28.348Z,7.03
2018-09-17T15:28:56.999Z,6.55
2018-09-17T15:31:26.440Z,5.37
2018-09-17T15:33:55.325Z,5.30
2018-09-17T15:36:24.418Z,4.67
2018-09-17T15:38:53.777Z,4.75
2018-09-17T15:41:23.066Z,3.60
2018-09-17T15:43:51.894Z,4.12
2018-09-17T15:46:21.135Z,3.90
2018-09-17T15:48:52.050Z,3.47
2018-09-17T15:51:21.970Z,3.33
2018-09-17T15:53:50.962Z,3.08
2018-09-17T15:56:20.960Z,3.08
2018-09-17T15:58:49.968Z,3.40
2018-09-17T16:01:19.572Z,2.65
2018-09-17T16:03:48.769Z,3.00
2018-09-17T16:06:18.717Z,3.02
2018-09-17T16:08:47.722Z,3.08
2018-09-17T16:11:16.804Z,3.72
2018-09-17T16:13:46.224Z,3.10
2018-09-17T16:16:15.290Z,3.45
2018-09-17T16:18:44.179Z,3.65
2018-09-17T16:21:13.390Z,3.67
2018-09-17T16:23:42.483Z,3.40
2018-09-17T16:26:11.467Z,3.33
2018-09-17T16:28:40.582Z,4.28
2018-09-17T16:31:10.159Z,3.52
2018-09-17T16:33:39.347Z,4.85
2018-09-17T16:36:08.407Z,3.37
2018-09-17T16:38:37.403Z,4.00
2018-09-17T16:41:06.764Z,4.00
2018-09-17T16:43:35.899Z,3.62
2018-09-17T16:46:05.274Z,3.12
2018-09-17T16:48:34.348Z,3.20
2018-09-17T16:51:03.928Z,3.72
2018-09-17T16:53:32.921Z,3.80
2018-09-17T16:56:01.795Z,4.50
2018-09-17T16:58:31.098Z,3.52
2018-09-17T17:01:00.053Z,4.22
2018-09-17T17:03:28.967Z,6.17
2018-09-17T17:06:00.292Z,9.10
2018-09-17T17:08:29.191Z,8.78
2018-09-17T17:10:58.765Z,5.22
2018-09-17T17:13:28.200Z,14.55
2018-09-17T17:15:57.683Z,5.03
2018-09-17T17:18:27.308Z,4.95
2018-09-17T17:20:56.489Z,5.30
2018-09-17T17:23:25.406Z,5.92
2018-09-17T17:25:54.501Z,4.80
2018-09-17T17:28:23.804Z,5.87
2018-09-17T17:30:53.145Z,5.25
2018-09-17T17:33:22.329Z,5.83
2018-09-17T17:35:52.359Z,5.65
2018-09-17T17:38:21.542Z,5.83
2018-09-17T17:40:51.014Z,6.20
2018-09-17T17:43:19.974Z,4.87
2018-09-17T17:45:48.934Z,4.45
2018-09-17T17:48:18.218Z,5.37
2018-09-17T17:50:47.442Z,4.87
2018-09-17T17:53:16.599Z,4.95
2018-09-17T17:55:46.549Z,4.53
2018-09-17T17:58:16.322Z,4.67
2018-09-17T18:00:46.042Z,5.25
2018-09-17T18:03:14.824Z,4.85
2018-09-17T18:05:44.259Z,4.87
2018-09-17T18:08:13.139Z,5.17
2018-09-17T18:10:41.911Z,5.10
2018-09-17T18:13:11.396Z,6.33
2018-09-17T18:15:41.049Z,6.50
2018-09-17T18:18:10.225Z,7.87
2018-09-17T18:20:39.406Z,7.47
2018-09-17T18:23:08.494Z,7.55
2018-09-17T18:25:37.591Z,7.90
2018-09-17T18:28:07.075Z,8.80
2018-09-17T18:30:35.865Z,8.20
2018-09-17T18:33:04.657Z,8.50
2018-09-17T18:35:33.919Z,8.15
2018-09-17T18:38:03.760Z,9.80
2018-09-17T18:40:33.018Z,8.43
2018-09-17T18:43:01.844Z,8.28
2018-09-17T18:45:30.937Z,8.53
2018-09-17T18:47:59.858Z,8.43
2018-09-17T18:50:29.034Z,8.10
2018-09-17T18:52:58.290Z,7.35
2018-09-17T18:55:27.281Z,8.30
2018-09-17T18:57:56.123Z,8.60
2018-09-17T19:00:25.604Z,7.53
2018-09-17T19:02:55.193Z,7.45
2018-09-17T19:05:24.087Z,8.08
2018-09-17T19:07:53.051Z,7.65
2018-09-17T19:10:22.192Z,9.30
2018-09-17T19:12:51.415Z,8.55
2018-09-17T19:15:25.310Z,9.20
2018-09-17T19:17:54.727Z,9.93
2018-09-17T19:20:24.105Z,10.05
2018-09-17T19:22:58.151Z,9.58
2018-09-17T19:25:27.191Z,9.85
2018-09-17T19:28:01.765Z,9.40
2018-09-17T19:30:30.707Z,10.00
2018-09-17T19:32:59.827Z,10.28
2018-09-17T19:35:31.130Z,10.93
2018-09-17T19:38:05.235Z,11.08
2018-09-17T19:40:34.137Z,12.07
2018-09-17T19:43:04.539Z,13.08
2018-09-17T19:45:38.979Z,13.50
2018-09-17T19:48:07.950Z,13.90
2018-09-17T19:50:42.196Z,13.50
2018-09-17T19:53:11.187Z,14.15
2018-09-17T19:55:40.279Z,13.68
2018-09-17T19:58:14.765Z,13.53
2018-09-17T20:00:43.609Z,14.23
2018-09-17T20:03:12.508Z,14.45
2018-09-17T20:05:46.777Z,14.60
2018-09-17T20:08:15.759Z,13.80
2018-09-17T20:10:44.552Z,13.90
2018-09-17T20:13:13.984Z,13.60
2018-09-17T20:15:42.827Z,12.98
2018-09-17T20:18:12.344Z,12.07
2018-09-17T20:20:41.367Z,10.00
2018-09-17T20:23:10.481Z,13.35
2018-09-17T20:25:39.642Z,11.18
2018-09-17T20:28:09.060Z,12.37
2018-09-17T20:30:37.705Z,11.28
2018-09-17T20:33:07.047Z,14.50
2018-09-17T20:35:36.220Z,15.13
2018-09-17T20:38:05.743Z,16.05
2018-09-17T20:40:34.723Z,16.15
2018-09-17T20:43:04.109Z,17.37
2018-09-17T20:45:33.184Z,17.37
2018-09-17T20:48:02.009Z,15.65
2018-09-17T20:50:31.329Z,15.13
2018-09-17T20:53:00.283Z,14.98
2018-09-17T20:55:29.129Z,13.25
2018-09-17T20:57:58.327Z,14.28
2018-09-17T21:00:27.702Z,13.88
2018-09-17T21:02:56.367Z,13.25
2018-09-17T21:05:25.427Z,12.98
2018-09-17T21:07:55.075Z,12.45
2018-09-17T21:10:24.700Z,13.50
2018-09-17T21:12:53.854Z,12.37
2018-09-17T21:15:23.928Z,12.58
2018-09-17T21:17:53.111Z,12.95
2018-09-17T21:20:22.147Z,12.80
2018-09-17T21:22:51.738Z,12.47
2018-09-17T21:25:20.668Z,12.50
2018-09-17T21:27:49.942Z,13.38
2018-09-17T21:30:18.718Z,11.55
2018-09-17T21:32:47.616Z,12.40
2018-09-17T21:35:17.176Z,12.07
2018-09-17T21:37:46.199Z,12.30
2018-09-17T21:40:15.291Z,12.30
2018-09-17T21:42:44.420Z,12.80
2018-09-17T21:45:13.711Z,13.03
2018-09-17T21:47:42.681Z,12.58
2018-09-17T21:50:12.309Z,12.70
2018-09-17T21:52:41.094Z,11.73
2018-09-17T21:55:09.899Z,12.55
2018-09-17T21:57:39.008Z,12.13
2018-09-17T22:00:09.922Z,12.20
2018-09-17T22:02:38.995Z,11.65
2018-09-17T22:05:08.679Z,11.73
2018-09-17T22:07:37.522Z,11.33
2018-09-17T22:10:06.542Z,11.48
2018-09-17T22:12:35.451Z,11.12
2018-09-17T22:15:05.548Z,9.98
2018-09-17T22:17:35.242Z,9.53
2018-09-17T22:20:04.975Z,9.43
2018-09-17T22:22:34.160Z,9.60
2018-09-17T22:25:03.686Z,8.45
2018-09-17T22:27:32.931Z,8.73
2018-09-17T22:30:01.752Z,8.30
2018-09-17T22:32:30.954Z,9.00
2018-09-17T22:35:00.200Z,8.53
2018-09-17T22:37:29.251Z,9.00
2018-09-17T22:39:58.327Z,7.60
2018-09-17T22:42:28.384Z,7.70
2018-09-17T22:44:57.560Z,7.83
2018-09-17T22:47:26.735Z,7.15
2018-09-17T22:49:55.993Z,7.90
2018-09-17T22:52:24.849Z,7.60
2018-09-17T22:54:54.227Z,6.90
2018-09-17T22:57:23.183Z,7.55
2018-09-17T22:59:52.546Z,8.03
2018-09-17T23:02:21.441Z,7.75
2018-09-17T23:04:51.374Z,7.25
2018-09-17T23:07:20.223Z,7.45
2018-09-17T23:09:49.018Z,6.80
2018-09-17T23:12:18.214Z,7.50
2018-09-17T23:14:46.991Z,7.22
2018-09-17T23:17:15.892Z,7.72
2018-09-17T23:19:45.338Z,7.42
2018-09-17T23:22:14.529Z,7.30
2018-09-17T23:24:43.677Z,7.45
2018-09-17T23:27:12.655Z,7.28
2018-09-17T23:29:41.608Z,7.42
2018-09-17T23:32:11.038Z,6.80
2018-09-17T23:34:40.621Z,6.70
2018-09-17T23:37:09.431Z,7.25
2018-09-17T23:39:39.124Z,6.67
2018-09-17T23:42:08.339Z,6.75
2018-09-17T23:44:37.628Z,5.87
2018-09-17T23:47:06.833Z,5.62
2018-09-17T23:49:36.041Z,6.25
2018-09-17T23:52:05.323Z,6.00
2018-09-17T23:54:34.531Z,5.40
2018-09-17T23:57:03.979Z,5.78
2018-09-17T23:59:32.711Z,5.33
